sensor_id;sensor_type;location;lat;lon;timestamp;temperature;humidity
64918;HTU21D;52176;44.858;38.372;2023-05-07T00:01:53;15.86;80.14
64918;HTU21D;52176;44.858;38.372;2023-05-07T00:04:19;15.83;80.02
64918;HTU21D;52176;44.858;38.372;2023-05-07T00:06:46;15.80;79.95
64918;HTU21D;52176;44.858;38.372;2023-05-07T00:09:11;15.78;79.90
64918;HTU21D;52176;44.858;38.372;2023-05-07T00:11:37;15.77;79.85
64918;HTU21D;52176;44.858;38.372;2023-05-07T00:14:03;15.76;79.80
64918;HTU21D;52176;44.858;38.372;2023-05-07T00:16:29;15.74;79.77
64918;HTU21D;52176;44.858;38.372;2023-05-07T00:18:55;15.73;79.77
64918;HTU21D;52176;44.858;38.372;2023-05-07T00:21:21;15.72;79.75
64918;HTU21D;52176;44.858;38.372;2023-05-07T00:23:47;15.71;79.72
64918;HTU21D;52176;44.858;38.372;2023-05-07T00:26:13;15.67;79.72
64918;HTU21D;52176;44.858;38.372;2023-05-07T00:28:40;15.65;79.82
64918;HTU21D;52176;44.858;38.372;2023-05-07T00:31:06;15.63;79.84
64918;HTU21D;52176;44.858;38.372;2023-05-07T00:33:32;15.61;79.83
64918;HTU21D;52176;44.858;38.372;2023-05-07T00:35:57;15.62;79.82
64918;HTU21D;52176;44.858;38.372;2023-05-07T00:38:23;15.61;79.82
64918;HTU21D;52176;44.858;38.372;2023-05-07T00:40:49;15.61;79.73
64918;HTU21D;52176;44.858;38.372;2023-05-07T00:43:17;15.61;79.70
64918;HTU21D;52176;44.858;38.372;2023-05-07T00:45:42;15.61;79.61
64918;HTU21D;52176;44.858;38.372;2023-05-07T00:48:08;15.61;79.59
64918;HTU21D;52176;44.858;38.372;2023-05-07T00:50:34;15.61;79.57
64918;HTU21D;52176;44.858;38.372;2023-05-07T00:53:01;15.60;79.50
64918;HTU21D;52176;44.858;38.372;2023-05-07T00:55:26;15.59;79.47
64918;HTU21D;52176;44.858;38.372;2023-05-07T00:57:52;15.58;79.41
64918;HTU21D;52176;44.858;38.372;2023-05-07T01:00:18;15.57;79.30
64918;HTU21D;52176;44.858;38.372;2023-05-07T01:02:45;15.57;79.21
64918;HTU21D;52176;44.858;38.372;2023-05-07T01:05:12;15.58;79.11
64918;HTU21D;52176;44.858;38.372;2023-05-07T01:07:39;15.57;79.04
64918;HTU21D;52176;44.858;38.372;2023-05-07T01:10:05;15.56;79.06
64918;HTU21D;52176;44.858;38.372;2023-05-07T01:12:32;15.54;78.98
64918;HTU21D;52176;44.858;38.372;2023-05-07T01:14:58;15.52;78.92
64918;HTU21D;52176;44.858;38.372;2023-05-07T01:17:24;15.49;78.88
64918;HTU21D;52176;44.858;38.372;2023-05-07T01:19:51;15.51;78.82
64918;HTU21D;52176;44.858;38.372;2023-05-07T01:22:31;15.48;78.77
64918;HTU21D;52176;44.858;38.372;2023-05-07T01:24:58;15.47;78.70
64918;HTU21D;52176;44.858;38.372;2023-05-07T01:27:27;15.43;78.75
64918;HTU21D;52176;44.858;38.372;2023-05-07T01:29:53;15.40;78.79
64918;HTU21D;52176;44.858;38.372;2023-05-07T01:32:21;15.38;78.84
64918;HTU21D;52176;44.858;38.372;2023-05-07T01:34:49;15.37;78.80
64918;HTU21D;52176;44.858;38.372;2023-05-07T01:37:16;15.33;78.72
64918;HTU21D;52176;44.858;38.372;2023-05-07T01:39:42;15.32;78.69
64918;HTU21D;52176;44.858;38.372;2023-05-07T01:42:07;15.31;78.65
64918;HTU21D;52176;44.858;38.372;2023-05-07T01:44:33;15.27;78.60
64918;HTU21D;52176;44.858;38.372;2023-05-07T01:46:59;15.25;78.63
64918;HTU21D;52176;44.858;38.372;2023-05-07T01:49:26;15.22;78.59
64918;HTU21D;52176;44.858;38.372;2023-05-07T01:51:53;15.19;78.65
64918;HTU21D;52176;44.858;38.372;2023-05-07T01:54:18;15.17;78.59
64918;HTU21D;52176;44.858;38.372;2023-05-07T01:56:46;15.14;78.60
64918;HTU21D;52176;44.858;38.372;2023-05-07T01:59:14;15.14;78.61
64918;HTU21D;52176;44.858;38.372;2023-05-07T02:01:40;15.12;78.56
64918;HTU21D;52176;44.858;38.372;2023-05-07T02:04:06;15.09;78.59
64918;HTU21D;52176;44.858;38.372;2023-05-07T02:06:32;15.09;78.59
64918;HTU21D;52176;44.858;38.372;2023-05-07T02:09:03;15.07;78.56
64918;HTU21D;52176;44.858;38.372;2023-05-07T02:11:28;15.04;78.62
64918;HTU21D;52176;44.858;38.372;2023-05-07T02:13:54;15.04;78.59
64918;HTU21D;52176;44.858;38.372;2023-05-07T02:16:20;15.01;78.65
64918;HTU21D;52176;44.858;38.372;2023-05-07T02:18:47;14.99;78.66
64918;HTU21D;52176;44.858;38.372;2023-05-07T02:21:13;14.97;78.68
64918;HTU21D;52176;44.858;38.372;2023-05-07T02:23:39;14.95;78.69
64918;HTU21D;52176;44.858;38.372;2023-05-07T02:26:05;14.93;78.70
64918;HTU21D;52176;44.858;38.372;2023-05-07T02:28:31;14.93;78.67
64918;HTU21D;52176;44.858;38.372;2023-05-07T02:31:00;14.89;78.68
64918;HTU21D;52176;44.858;38.372;2023-05-07T02:33:27;14.87;78.71
64918;HTU21D;52176;44.858;38.372;2023-05-07T02:35:53;14.86;78.78
64918;HTU21D;52176;44.858;38.372;2023-05-07T02:38:19;14.82;78.81
64918;HTU21D;52176;44.858;38.372;2023-05-07T02:40:45;14.80;78.85
64918;HTU21D;52176;44.858;38.372;2023-05-07T02:43:11;14.78;78.92
64918;HTU21D;52176;44.858;38.372;2023-05-07T02:45:39;14.73;79.04
64918;HTU21D;52176;44.858;38.372;2023-05-07T02:48:06;14.70;79.11
64918;HTU21D;52176;44.858;38.372;2023-05-07T02:50:32;14.66;79.21
64918;HTU21D;52176;44.858;38.372;2023-05-07T02:52:58;14.63;79.05
64918;HTU21D;52176;44.858;38.372;2023-05-07T02:55:24;14.59;78.99
64918;HTU21D;52176;44.858;38.372;2023-05-07T02:57:50;14.55;79.26
64918;HTU21D;52176;44.858;38.372;2023-05-07T03:00:18;14.56;79.47
64918;HTU21D;52176;44.858;38.372;2023-05-07T03:03:22;14.54;79.40
64918;HTU21D;52176;44.858;38.372;2023-05-07T03:05:49;14.53;79.52
64918;HTU21D;52176;44.858;38.372;2023-05-07T03:08:15;14.53;79.59
64918;HTU21D;52176;44.858;38.372;2023-05-07T03:10:41;14.52;79.68
64918;HTU21D;52176;44.858;38.372;2023-05-07T03:13:07;14.55;79.68
64918;HTU21D;52176;44.858;38.372;2023-05-07T03:15:33;14.53;79.72
64918;HTU21D;52176;44.858;38.372;2023-05-07T03:17:59;14.54;79.77
64918;HTU21D;52176;44.858;38.372;2023-05-07T03:20:25;14.55;79.84
64918;HTU21D;52176;44.858;38.372;2023-05-07T03:22:52;14.56;79.95
64918;HTU21D;52176;44.858;38.372;2023-05-07T03:25:18;14.57;79.90
64918;HTU21D;52176;44.858;38.372;2023-05-07T03:27:44;14.54;79.97
64918;HTU21D;52176;44.858;38.372;2023-05-07T03:30:11;14.54;79.98
64918;HTU21D;52176;44.858;38.372;2023-05-07T03:32:37;14.53;79.98
64918;HTU21D;52176;44.858;38.372;2023-05-07T03:35:07;14.50;79.95
64918;HTU21D;52176;44.858;38.372;2023-05-07T03:37:33;14.44;80.16
64918;HTU21D;52176;44.858;38.372;2023-05-07T03:39:59;14.41;80.11
64918;HTU21D;52176;44.858;38.372;2023-05-07T03:42:26;14.38;80.20
64918;HTU21D;52176;44.858;38.372;2023-05-07T03:44:52;14.36;80.24
64918;HTU21D;52176;44.858;38.372;2023-05-07T03:47:18;14.34;80.27
64918;HTU21D;52176;44.858;38.372;2023-05-07T03:49:46;14.32;80.29
64918;HTU21D;52176;44.858;38.372;2023-05-07T03:52:13;14.30;80.32
64918;HTU21D;52176;44.858;38.372;2023-05-07T03:54:39;14.29;80.33
64918;HTU21D;52176;44.858;38.372;2023-05-07T03:57:05;14.27;80.36
64918;HTU21D;52176;44.858;38.372;2023-05-07T03:59:31;14.27;80.37
64918;HTU21D;52176;44.858;38.372;2023-05-07T04:01:58;14.29;80.37
64918;HTU21D;52176;44.858;38.372;2023-05-07T04:04:26;14.29;80.31
64918;HTU21D;52176;44.858;38.372;2023-05-07T04:06:52;14.30;80.24
64918;HTU21D;52176;44.858;38.372;2023-05-07T04:09:18;14.33;80.11
64918;HTU21D;52176;44.858;38.372;2023-05-07T04:11:46;14.32;79.95
64918;HTU21D;52176;44.858;38.372;2023-05-07T04:14:12;14.29;80.91
64918;HTU21D;52176;44.858;38.372;2023-05-07T04:16:38;14.25;80.36
64918;HTU21D;52176;44.858;38.372;2023-05-07T04:19:03;14.22;80.98
64918;HTU21D;52176;44.858;38.372;2023-05-07T04:21:30;14.19;80.30
64918;HTU21D;52176;44.858;38.372;2023-05-07T04:23:57;14.27;82.22
64918;HTU21D;52176;44.858;38.372;2023-05-07T04:26:23;14.49;82.90
64918;HTU21D;52176;44.858;38.372;2023-05-07T04:28:50;14.71;82.66
64918;HTU21D;52176;44.858;38.372;2023-05-07T04:31:16;14.88;82.23
64918;HTU21D;52176;44.858;38.372;2023-05-07T04:33:43;14.97;81.17
64918;HTU21D;52176;44.858;38.372;2023-05-07T04:36:12;15.01;81.66
64918;HTU21D;52176;44.858;38.372;2023-05-07T04:38:45;15.15;81.65
64918;HTU21D;52176;44.858;38.372;2023-05-07T04:41:12;15.29;80.98
64918;HTU21D;52176;44.858;38.372;2023-05-07T04:43:39;15.39;79.76
64918;HTU21D;52176;44.858;38.372;2023-05-07T04:46:07;15.42;79.12
64918;HTU21D;52176;44.858;38.372;2023-05-07T04:48:34;15.45;79.30
64918;HTU21D;52176;44.858;38.372;2023-05-07T04:51:01;15.46;78.66
64918;HTU21D;52176;44.858;38.372;2023-05-07T04:53:27;15.45;77.95
64918;HTU21D;52176;44.858;38.372;2023-05-07T04:55:55;15.47;78.09
64918;HTU21D;52176;44.858;38.372;2023-05-07T04:58:23;15.52;78.08
64918;HTU21D;52176;44.858;38.372;2023-05-07T05:00:50;15.52;77.83
64918;HTU21D;52176;44.858;38.372;2023-05-07T05:03:15;15.55;77.47
64918;HTU21D;52176;44.858;38.372;2023-05-07T05:05:41;15.48;78.52
64918;HTU21D;52176;44.858;38.372;2023-05-07T05:08:07;15.55;78.40
64918;HTU21D;52176;44.858;38.372;2023-05-07T05:10:36;15.57;77.83
64918;HTU21D;52176;44.858;38.372;2023-05-07T05:13:02;15.56;77.88
64918;HTU21D;52176;44.858;38.372;2023-05-07T05:15:28;15.59;78.01
64918;HTU21D;52176;44.858;38.372;2023-05-07T05:17:54;15.62;78.13
64918;HTU21D;52176;44.858;38.372;2023-05-07T05:20:20;15.71;78.73
64918;HTU21D;52176;44.858;38.372;2023-05-07T05:22:47;15.75;77.84
64918;HTU21D;52176;44.858;38.372;2023-05-07T05:25:13;15.70;77.35
64918;HTU21D;52176;44.858;38.372;2023-05-07T05:27:39;15.55;78.53
64918;HTU21D;52176;44.858;38.372;2023-05-07T05:30:04;15.63;79.14
64918;HTU21D;52176;44.858;38.372;2023-05-07T05:32:32;15.72;79.04
64918;HTU21D;52176;44.858;38.372;2023-05-07T05:34:59;15.85;79.12
64918;HTU21D;52176;44.858;38.372;2023-05-07T05:37:26;15.93;78.43
64918;HTU21D;52176;44.858;38.372;2023-05-07T05:39:53;15.99;77.89
64918;HTU21D;52176;44.858;38.372;2023-05-07T05:42:21;16.04;77.96
64918;HTU21D;52176;44.858;38.372;2023-05-07T05:44:47;16.07;76.77
64918;HTU21D;52176;44.858;38.372;2023-05-07T05:47:13;16.04;76.41
64918;HTU21D;52176;44.858;38.372;2023-05-07T05:49:39;16.01;76.33
64918;HTU21D;52176;44.858;38.372;2023-05-07T05:52:07;16.00;75.97
64918;HTU21D;52176;44.858;38.372;2023-05-07T05:54:33;15.92;75.98
64918;HTU21D;52176;44.858;38.372;2023-05-07T05:56:58;15.76;77.23
64918;HTU21D;52176;44.858;38.372;2023-05-07T05:59:24;15.77;76.73
64918;HTU21D;52176;44.858;38.372;2023-05-07T06:01:52;15.82;76.72
64918;HTU21D;52176;44.858;38.372;2023-05-07T06:04:17;15.84;76.50
64918;HTU21D;52176;44.858;38.372;2023-05-07T06:06:44;15.89;76.34
64918;HTU21D;52176;44.858;38.372;2023-05-07T06:09:10;15.90;75.79
64918;HTU21D;52176;44.858;38.372;2023-05-07T06:11:40;15.75;77.24
64918;HTU21D;52176;44.858;38.372;2023-05-07T06:14:07;15.78;77.35
64918;HTU21D;52176;44.858;38.372;2023-05-07T06:16:33;15.85;77.36
64918;HTU21D;52176;44.858;38.372;2023-05-07T06:18:59;15.90;76.67
64918;HTU21D;52176;44.858;38.372;2023-05-07T06:21:25;15.88;76.43
64918;HTU21D;52176;44.858;38.372;2023-05-07T06:23:51;15.78;77.97
64918;HTU21D;52176;44.858;38.372;2023-05-07T06:26:18;15.86;76.99
64918;HTU21D;52176;44.858;38.372;2023-05-07T06:28:46;15.82;76.58
64918;HTU21D;52176;44.858;38.372;2023-05-07T06:31:14;15.75;76.51
64918;HTU21D;52176;44.858;38.372;2023-05-07T06:33:43;15.71;76.52
64918;HTU21D;52176;44.858;38.372;2023-05-07T06:36:09;15.77;76.52
64918;HTU21D;52176;44.858;38.372;2023-05-07T06:38:35;15.88;76.25
64918;HTU21D;52176;44.858;38.372;2023-05-07T06:41:01;16.04;77.62
64918;HTU21D;52176;44.858;38.372;2023-05-07T06:43:27;16.32;75.75
64918;HTU21D;52176;44.858;38.372;2023-05-07T06:45:56;16.49;74.97
64918;HTU21D;52176;44.858;38.372;2023-05-07T06:48:21;16.49;74.52
64918;HTU21D;52176;44.858;38.372;2023-05-07T06:51:01;16.49;74.39
64918;HTU21D;52176;44.858;38.372;2023-05-07T06:53:28;16.74;74.05
64918;HTU21D;52176;44.858;38.372;2023-05-07T06:55:56;16.90;72.93
64918;HTU21D;52176;44.858;38.372;2023-05-07T06:58:22;17.08;72.61
64918;HTU21D;52176;44.858;38.372;2023-05-07T07:00:48;17.14;72.38
64918;HTU21D;52176;44.858;38.372;2023-05-07T07:03:14;17.09;73.22
64918;HTU21D;52176;44.858;38.372;2023-05-07T07:05:40;17.28;72.51
64918;HTU21D;52176;44.858;38.372;2023-05-07T07:08:06;17.30;72.06
64918;HTU21D;52176;44.858;38.372;2023-05-07T07:10:32;17.31;72.05
64918;HTU21D;52176;44.858;38.372;2023-05-07T07:12:59;17.29;72.03
64918;HTU21D;52176;44.858;38.372;2023-05-07T07:15:25;17.32;72.05
64918;HTU21D;52176;44.858;38.372;2023-05-07T07:17:53;17.33;71.94
64918;HTU21D;52176;44.858;38.372;2023-05-07T07:20:19;17.34;71.88
64918;HTU21D;52176;44.858;38.372;2023-05-07T07:22:46;17.33;71.84
64918;HTU21D;52176;44.858;38.372;2023-05-07T07:25:12;17.24;71.85
64918;HTU21D;52176;44.858;38.372;2023-05-07T07:27:38;17.15;72.00
64918;HTU21D;52176;44.858;38.372;2023-05-07T07:30:06;17.09;72.19
64918;HTU21D;52176;44.858;38.372;2023-05-07T07:32:35;17.13;72.23
64918;HTU21D;52176;44.858;38.372;2023-05-07T07:35:01;17.15;72.20
64918;HTU21D;52176;44.858;38.372;2023-05-07T07:37:27;17.17;72.13
64918;HTU21D;52176;44.858;38.372;2023-05-07T07:39:53;17.21;72.08
64918;HTU21D;52176;44.858;38.372;2023-05-07T07:42:20;17.25;71.74
64918;HTU21D;52176;44.858;38.372;2023-05-07T07:44:47;17.20;71.67
64918;HTU21D;52176;44.858;38.372;2023-05-07T07:47:16;17.18;71.69
64918;HTU21D;52176;44.858;38.372;2023-05-07T07:49:43;17.20;71.64
64918;HTU21D;52176;44.858;38.372;2023-05-07T07:52:10;17.21;71.57
64918;HTU21D;52176;44.858;38.372;2023-05-07T07:54:37;17.23;71.55
64918;HTU21D;52176;44.858;38.372;2023-05-07T07:57:06;17.23;71.54
64918;HTU21D;52176;44.858;38.372;2023-05-07T07:59:33;17.23;71.43
64918;HTU21D;52176;44.858;38.372;2023-05-07T08:01:59;17.24;71.36
64918;HTU21D;52176;44.858;38.372;2023-05-07T08:04:27;17.22;71.42
64918;HTU21D;52176;44.858;38.372;2023-05-07T08:06:54;17.26;71.45
64918;HTU21D;52176;44.858;38.372;2023-05-07T08:09:22;17.25;71.26
64918;HTU21D;52176;44.858;38.372;2023-05-07T08:11:49;17.25;71.33
64918;HTU21D;52176;44.858;38.372;2023-05-07T08:14:15;17.26;71.30
64918;HTU21D;52176;44.858;38.372;2023-05-07T08:16:44;17.23;71.32
64918;HTU21D;52176;44.858;38.372;2023-05-07T08:19:10;17.20;71.42
64918;HTU21D;52176;44.858;38.372;2023-05-07T08:21:40;17.23;71.48
64918;HTU21D;52176;44.858;38.372;2023-05-07T08:24:07;17.23;71.45
64918;HTU21D;52176;44.858;38.372;2023-05-07T08:26:34;17.25;71.37
64918;HTU21D;52176;44.858;38.372;2023-05-07T08:29:02;17.28;71.42
64918;HTU21D;52176;44.858;38.372;2023-05-07T08:31:29;17.38;71.43
64918;HTU21D;52176;44.858;38.372;2023-05-07T08:33:55;17.51;71.24
64918;HTU21D;52176;44.858;38.372;2023-05-07T08:36:21;17.53;71.03
64918;HTU21D;52176;44.858;38.372;2023-05-07T08:38:47;17.52;71.10
64918;HTU21D;52176;44.858;38.372;2023-05-07T08:41:12;17.60;71.15
64918;HTU21D;52176;44.858;38.372;2023-05-07T08:43:41;17.73;70.92
64918;HTU21D;52176;44.858;38.372;2023-05-07T08:46:09;17.81;70.72
64918;HTU21D;52176;44.858;38.372;2023-05-07T08:48:40;17.93;70.51
64918;HTU21D;52176;44.858;38.372;2023-05-07T08:51:15;18.02;70.40
64918;HTU21D;52176;44.858;38.372;2023-05-07T08:53:41;18.09;70.32
64918;HTU21D;52176;44.858;38.372;2023-05-07T08:56:10;18.10;70.20
64918;HTU21D;52176;44.858;38.372;2023-05-07T08:58:36;18.02;70.26
64918;HTU21D;52176;44.858;38.372;2023-05-07T09:01:05;17.96;70.33
64918;HTU21D;52176;44.858;38.372;2023-05-07T09:03:32;17.84;70.45
64918;HTU21D;52176;44.858;38.372;2023-05-07T09:05:58;17.78;70.77
64918;HTU21D;52176;44.858;38.372;2023-05-07T09:08:26;17.74;70.92
64918;HTU21D;52176;44.858;38.372;2023-05-07T09:10:54;17.70;70.94
64918;HTU21D;52176;44.858;38.372;2023-05-07T09:13:22;17.72;70.93
64918;HTU21D;52176;44.858;38.372;2023-05-07T09:15:47;17.73;70.93
64918;HTU21D;52176;44.858;38.372;2023-05-07T09:18:14;17.72;70.92
64918;HTU21D;52176;44.858;38.372;2023-05-07T09:20:40;17.69;70.93
64918;HTU21D;52176;44.858;38.372;2023-05-07T09:23:07;17.67;70.98
64918;HTU21D;52176;44.858;38.372;2023-05-07T09:25:34;17.66;71.13
64918;HTU21D;52176;44.858;38.372;2023-05-07T09:28:05;17.69;71.08
64918;HTU21D;52176;44.858;38.372;2023-05-07T09:30:36;17.70;71.02
64918;HTU21D;52176;44.858;38.372;2023-05-07T09:33:05;17.67;70.97
64918;HTU21D;52176;44.858;38.372;2023-05-07T09:35:33;17.64;71.04
64918;HTU21D;52176;44.858;38.372;2023-05-07T09:38:05;17.63;71.20
64918;HTU21D;52176;44.858;38.372;2023-05-07T09:40:34;17.64;71.22
64918;HTU21D;52176;44.858;38.372;2023-05-07T09:43:14;17.61;71.25
64918;HTU21D;52176;44.858;38.372;2023-05-07T09:45:54;17.60;71.34
64918;HTU21D;52176;44.858;38.372;2023-05-07T09:48:23;17.61;71.51
64918;HTU21D;52176;44.858;38.372;2023-05-07T09:50:54;17.61;71.59
64918;HTU21D;52176;44.858;38.372;2023-05-07T09:53:25;17.60;71.68
64918;HTU21D;52176;44.858;38.372;2023-05-07T09:55:53;17.63;71.63
64918;HTU21D;52176;44.858;38.372;2023-05-07T09:58:20;17.65;71.61
64918;HTU21D;52176;44.858;38.372;2023-05-07T10:00:49;17.67;71.61
64918;HTU21D;52176;44.858;38.372;2023-05-07T10:03:16;17.66;71.53
64918;HTU21D;52176;44.858;38.372;2023-05-07T10:05:53;17.66;71.49
64918;HTU21D;52176;44.858;38.372;2023-05-07T10:08:20;17.67;71.60
64918;HTU21D;52176;44.858;38.372;2023-05-07T10:10:49;17.68;71.55
64918;HTU21D;52176;44.858;38.372;2023-05-07T10:13:19;17.68;71.51
64918;HTU21D;52176;44.858;38.372;2023-05-07T10:15:48;17.68;71.54
64918;HTU21D;52176;44.858;38.372;2023-05-07T10:18:14;17.67;71.50
64918;HTU21D;52176;44.858;38.372;2023-05-07T10:20:42;17.64;71.53
64918;HTU21D;52176;44.858;38.372;2023-05-07T10:23:10;17.61;71.61
64918;HTU21D;52176;44.858;38.372;2023-05-07T10:25:42;17.60;71.65
64918;HTU21D;52176;44.858;38.372;2023-05-07T10:28:15;17.60;71.72
64918;HTU21D;52176;44.858;38.372;2023-05-07T10:33:10;17.61;71.89
64918;HTU21D;52176;44.858;38.372;2023-05-07T10:35:41;17.62;71.96
64918;HTU21D;52176;44.858;38.372;2023-05-07T10:38:09;17.58;72.09
64918;HTU21D;52176;44.858;38.372;2023-05-07T10:40:38;17.55;72.18
64918;HTU21D;52176;44.858;38.372;2023-05-07T10:43:05;17.53;72.29
64918;HTU21D;52176;44.858;38.372;2023-05-07T10:45:38;17.53;72.35
64918;HTU21D;52176;44.858;38.372;2023-05-07T10:48:05;17.51;72.50
64918;HTU21D;52176;44.858;38.372;2023-05-07T10:50:31;17.49;72.59
64918;HTU21D;52176;44.858;38.372;2023-05-07T10:53:20;17.50;72.64
64918;HTU21D;52176;44.858;38.372;2023-05-07T10:59:51;17.60;72.62
64918;HTU21D;52176;44.858;38.372;2023-05-07T11:02:00;17.70;72.42
64918;HTU21D;52176;44.858;38.372;2023-05-07T11:07:38;17.85;72.23
64918;HTU21D;52176;44.858;38.372;2023-05-07T11:10:10;17.90;72.25
64918;HTU21D;52176;44.858;38.372;2023-05-07T11:12:57;17.94;72.26
64918;HTU21D;52176;44.858;38.372;2023-05-07T11:15:41;17.98;72.23
64918;HTU21D;52176;44.858;38.372;2023-05-07T11:18:50;17.98;72.25
64918;HTU21D;52176;44.858;38.372;2023-05-07T11:21:38;17.91;72.29
64918;HTU21D;52176;44.858;38.372;2023-05-07T11:24:17;17.81;72.42
64918;HTU21D;52176;44.858;38.372;2023-05-07T11:26:53;17.73;72.64
64918;HTU21D;52176;44.858;38.372;2023-05-07T11:29:22;17.64;72.88
64918;HTU21D;52176;44.858;38.372;2023-05-07T11:31:52;17.61;73.07
64918;HTU21D;52176;44.858;38.372;2023-05-07T11:34:23;17.56;73.23
64918;HTU21D;52176;44.858;38.372;2023-05-07T11:36:50;17.52;73.36
64918;HTU21D;52176;44.858;38.372;2023-05-07T11:39:25;17.50;73.57
64918;HTU21D;52176;44.858;38.372;2023-05-07T11:41:51;17.46;73.71
64918;HTU21D;52176;44.858;38.372;2023-05-07T11:44:17;17.47;73.89
64918;HTU21D;52176;44.858;38.372;2023-05-07T11:46:43;17.47;74.04
64918;HTU21D;52176;44.858;38.372;2023-05-07T11:49:10;17.46;74.18
64918;HTU21D;52176;44.858;38.372;2023-05-07T11:51:36;17.44;74.41
64918;HTU21D;52176;44.858;38.372;2023-05-07T11:54:04;17.45;78.11
64918;HTU21D;52176;44.858;38.372;2023-05-07T11:56:34;17.50;76.86
64918;HTU21D;52176;44.858;38.372;2023-05-07T11:59:00;17.53;76.50
64918;HTU21D;52176;44.858;38.372;2023-05-07T12:01:26;17.53;76.22
64918;HTU21D;52176;44.858;38.372;2023-05-07T12:03:52;17.53;76.21
64918;HTU21D;52176;44.858;38.372;2023-05-07T12:06:18;17.53;76.17
64918;HTU21D;52176;44.858;38.372;2023-05-07T12:08:44;17.53;76.23
64918;HTU21D;52176;44.858;38.372;2023-05-07T12:11:13;17.56;76.35
64918;HTU21D;52176;44.858;38.372;2023-05-07T12:13:39;17.56;76.30
64918;HTU21D;52176;44.858;38.372;2023-05-07T12:16:05;17.55;76.31
64918;HTU21D;52176;44.858;38.372;2023-05-07T12:18:32;17.52;76.41
64918;HTU21D;52176;44.858;38.372;2023-05-07T12:20:58;17.46;76.49
64918;HTU21D;52176;44.858;38.372;2023-05-07T12:23:24;17.40;76.57
64918;HTU21D;52176;44.858;38.372;2023-05-07T12:25:50;17.36;76.76
64918;HTU21D;52176;44.858;38.372;2023-05-07T12:28:17;17.26;76.87
64918;HTU21D;52176;44.858;38.372;2023-05-07T12:30:43;17.20;77.05
64918;HTU21D;52176;44.858;38.372;2023-05-07T12:33:09;17.16;77.20
64918;HTU21D;52176;44.858;38.372;2023-05-07T12:35:42;17.14;77.37
64918;HTU21D;52176;44.858;38.372;2023-05-07T12:38:08;17.11;77.53
64918;HTU21D;52176;44.858;38.372;2023-05-07T12:40:35;17.11;77.48
64918;HTU21D;52176;44.858;38.372;2023-05-07T12:43:01;17.09;77.59
64918;HTU21D;52176;44.858;38.372;2023-05-07T12:45:27;17.06;77.58
64918;HTU21D;52176;44.858;38.372;2023-05-07T12:47:52;17.05;77.66
64918;HTU21D;52176;44.858;38.372;2023-05-07T12:50:18;17.02;77.75
64918;HTU21D;52176;44.858;38.372;2023-05-07T12:52:49;17.02;77.80
64918;HTU21D;52176;44.858;38.372;2023-05-07T12:55:15;17.03;78.00
64918;HTU21D;52176;44.858;38.372;2023-05-07T12:57:41;16.98;78.04
64918;HTU21D;52176;44.858;38.372;2023-05-07T13:00:07;16.95;78.19
64918;HTU21D;52176;44.858;38.372;2023-05-07T13:02:37;16.92;78.17
64918;HTU21D;52176;44.858;38.372;2023-05-07T13:05:03;16.91;78.25
64918;HTU21D;52176;44.858;38.372;2023-05-07T13:07:29;16.88;78.34
64918;HTU21D;52176;44.858;38.372;2023-05-07T13:09:55;16.88;78.45
64918;HTU21D;52176;44.858;38.372;2023-05-07T13:12:21;16.87;78.42
64918;HTU21D;52176;44.858;38.372;2023-05-07T13:14:46;16.81;78.56
64918;HTU21D;52176;44.858;38.372;2023-05-07T13:17:12;16.75;78.84
64918;HTU21D;52176;44.858;38.372;2023-05-07T13:19:38;16.66;79.03
64918;HTU21D;52176;44.858;38.372;2023-05-07T13:22:05;16.59;79.23
64918;HTU21D;52176;44.858;38.372;2023-05-07T13:24:31;16.51;79.30
64918;HTU21D;52176;44.858;38.372;2023-05-07T13:26:56;16.48;79.39
64918;HTU21D;52176;44.858;38.372;2023-05-07T13:29:22;16.42;79.55
64918;HTU21D;52176;44.858;38.372;2023-05-07T13:31:58;16.39;79.55
64918;HTU21D;52176;44.858;38.372;2023-05-07T13:34:24;16.34;79.65
64918;HTU21D;52176;44.858;38.372;2023-05-07T13:36:50;16.26;79.85
64918;HTU21D;52176;44.858;38.372;2023-05-07T13:39:16;16.18;80.10
64918;HTU21D;52176;44.858;38.372;2023-05-07T13:41:41;16.14;80.14
64918;HTU21D;52176;44.858;38.372;2023-05-07T13:44:07;16.13;80.19
64918;HTU21D;52176;44.858;38.372;2023-05-07T13:46:33;16.11;80.26
64918;HTU21D;52176;44.858;38.372;2023-05-07T13:48:59;16.06;80.40
64918;HTU21D;52176;44.858;38.372;2023-05-07T13:51:25;16.03;80.48
64918;HTU21D;52176;44.858;38.372;2023-05-07T13:53:51;16.03;80.59
64918;HTU21D;52176;44.858;38.372;2023-05-07T13:56:18;16.07;84.84
64918;HTU21D;52176;44.858;38.372;2023-05-07T13:58:43;16.25;85.63
64918;HTU21D;52176;44.858;38.372;2023-05-07T14:01:09;16.31;84.09
64918;HTU21D;52176;44.858;38.372;2023-05-07T14:03:35;16.34;85.45
64918;HTU21D;52176;44.858;38.372;2023-05-07T14:06:03;16.40;84.18
64918;HTU21D;52176;44.858;38.372;2023-05-07T14:08:29;16.39;83.52
64918;HTU21D;52176;44.858;38.372;2023-05-07T14:10:55;16.36;83.19
64918;HTU21D;52176;44.858;38.372;2023-05-07T14:13:20;16.31;83.04
64918;HTU21D;52176;44.858;38.372;2023-05-07T14:15:46;16.30;86.17
64918;HTU21D;52176;44.858;38.372;2023-05-07T14:18:14;16.36;84.81
64918;HTU21D;52176;44.858;38.372;2023-05-07T14:20:39;16.35;84.20
64918;HTU21D;52176;44.858;38.372;2023-05-07T14:23:05;16.32;83.83
64918;HTU21D;52176;44.858;38.372;2023-05-07T14:25:31;16.29;83.57
64918;HTU21D;52176;44.858;38.372;2023-05-07T14:27:57;16.24;83.50
64918;HTU21D;52176;44.858;38.372;2023-05-07T14:30:23;16.17;83.39
64918;HTU21D;52176;44.858;38.372;2023-05-07T14:32:50;16.14;83.39
64918;HTU21D;52176;44.858;38.372;2023-05-07T14:35:16;16.10;83.39
64918;HTU21D;52176;44.858;38.372;2023-05-07T14:37:42;16.10;83.32
64918;HTU21D;52176;44.858;38.372;2023-05-07T14:40:08;16.05;83.06
64918;HTU21D;52176;44.858;38.372;2023-05-07T14:42:34;15.99;82.87
64918;HTU21D;52176;44.858;38.372;2023-05-07T14:45:00;16.01;86.26
64918;HTU21D;52176;44.858;38.372;2023-05-07T14:47:26;16.05;85.13
64918;HTU21D;52176;44.858;38.372;2023-05-07T14:49:51;16.08;84.48
64918;HTU21D;52176;44.858;38.372;2023-05-07T14:52:18;16.10;86.43
64918;HTU21D;52176;44.858;38.372;2023-05-07T14:54:44;16.21;86.83
64918;HTU21D;52176;44.858;38.372;2023-05-07T14:57:10;16.28;85.58
64918;HTU21D;52176;44.858;38.372;2023-05-07T14:59:39;16.26;84.93
64918;HTU21D;52176;44.858;38.372;2023-05-07T15:02:05;16.20;84.57
64918;HTU21D;52176;44.858;38.372;2023-05-07T15:04:33;16.12;84.46
64918;HTU21D;52176;44.858;38.372;2023-05-07T15:06:59;16.02;84.44
64918;HTU21D;52176;44.858;38.372;2023-05-07T15:09:25;15.96;86.65
64918;HTU21D;52176;44.858;38.372;2023-05-07T15:11:51;16.04;85.53
64918;HTU21D;52176;44.858;38.372;2023-05-07T15:14:17;16.00;85.44